»·PEaware :: N66RS KFUL-KBUR

N66RS :: KFUL-KBUR

FLIGHT INFORMATION

Flight Status: Arrived
Operator: Privately registered:
United States
More flights under this callsign
Pilot: FSO (2551)
Aircraft: CESSNA 172 SKYHAWK
(C172)
More flights by this aircraft type
Origin: KFUL Fullerton Mun
United States
Destination: KBUR Bob Hope-Burbank
United States
More flights between these airports :: More routes between these airports
Route: SLI V23 POPPR SMO125 SMO SMO311 SILEX
File this flight plan on PilotEdge
Remarks: TEC cstp1
Altitude:
(Current/Filed)
4,000ft
Speed:
(Current/Filed)
117kts
Departed: 02-Dec-19 08:03 PM
Arrived: 02-Dec-19 08:42 PM
Distance/Time
Traveled:
27nm/0:39
Distance/Time
To Go:
Arrived

Flight Plot

Page will automatically refresh every two minutes.


Map Options




Map Legend


Flown Route
Filed Route
Departure Airport
Arrival Airport
Navaid (VOR, NDB)
Fix

Horizontal Profiles

Position Reports

Time Latitude Longitude Heading Altitude Ground
Speed
02-Dec-19 19:46 33.870695 -117.981418 349 99ft 0kts
02-Dec-19 19:47 33.870696 -117.981418 349 99ft 0kts
02-Dec-19 19:48 33.870698 -117.981419 349 99ft 0kts
02-Dec-19 19:49 33.870700 -117.981419 349 99ft 0kts
02-Dec-19 19:50 33.870702 -117.981419 349 99ft 0kts
02-Dec-19 19:51 33.870703 -117.981420 349 99ft 0kts
02-Dec-19 19:52 33.870705 -117.981420 349 99ft 0kts
02-Dec-19 19:53 33.870707 -117.981421 349 99ft 0kts
02-Dec-19 19:54 33.870709 -117.981421 349 99ft 0kts
02-Dec-19 19:55 33.871450 -117.979970 78 99ft 18kts
02-Dec-19 19:56 33.872058 -117.977000 76 99ft 0kts
02-Dec-19 19:57 33.872059 -117.976996 76 99ft 0kts
02-Dec-19 19:58 33.872059 -117.976993 76 99ft 0kts
02-Dec-19 19:59 33.872289 -117.975820 71 99ft 12kts
02-Dec-19 20:00 33.872566 -117.974915 9 99ft 0kts
02-Dec-19 20:01 33.872900 -117.975304 252 99ft 0kts
02-Dec-19 20:02 33.868853 -117.992121 240 727ft 81kts
02-Dec-19 20:03 33.851590 -117.986819 126 1948ft 80kts
02-Dec-19 20:04 33.835770 -117.967420 156 3023ft 83kts
02-Dec-19 20:05 33.814630 -117.973206 223 3976ft 85kts
02-Dec-19 20:06 33.800429 -117.998727 247 4100ft 98kts
02-Dec-19 20:07 33.790082 -118.031109 257 4023ft 112kts
02-Dec-19 20:08 33.781288 -118.064756 271 3925ft 102kts
02-Dec-19 20:09 33.793729 -118.092836 291 3948ft 98kts
02-Dec-19 20:10 33.798368 -118.125118 275 3976ft 101kts
02-Dec-19 20:11 33.804081 -118.157993 281 4026ft 99kts
02-Dec-19 20:12 33.815228 -118.189226 283 3953ft 103kts
02-Dec-19 20:13 33.825614 -118.220765 294 3968ft 98kts
02-Dec-19 20:14 33.834178 -118.252378 278 3959ft 98kts
02-Dec-19 20:15 33.839714 -118.285649 280 3922ft 101kts
02-Dec-19 20:16 33.861487 -118.304804 333 3896ft 99kts
02-Dec-19 20:17 33.881771 -118.326692 317 3962ft 97kts
02-Dec-19 20:18 33.902583 -118.348891 319 4009ft 102kts
02-Dec-19 20:19 33.923725 -118.371827 319 4085ft 99kts
02-Dec-19 20:20 33.945970 -118.392324 313 3994ft 103kts
02-Dec-19 20:21 33.968162 -118.412700 328 3946ft 97kts
02-Dec-19 20:22 33.989783 -118.431606 299 3946ft 96kts
02-Dec-19 20:23 34.006485 -118.456796 324 3884ft 102kts
02-Dec-19 20:24 34.027180 -118.477862 309 3904ft 99kts
02-Dec-19 20:25 34.047324 -118.499739 311 3936ft 98kts
02-Dec-19 20:26 34.065662 -118.524277 312 3929ft 102kts
02-Dec-19 20:27 34.083613 -118.548239 338 4026ft 93kts
02-Dec-19 20:28 34.104609 -118.569884 311 3977ft 100kts
02-Dec-19 20:29 34.123907 -118.594647 318 3933ft 99kts
02-Dec-19 20:31 34.142506 -118.618817 311 3946ft 97kts
02-Dec-19 20:32 34.164232 -118.631606 28 3881ft 99kts
02-Dec-19 20:33 34.188743 -118.618498 28 3945ft 99kts
02-Dec-19 20:34 34.199877 -118.590649 70 3974ft 98kts
02-Dec-19 20:35 34.200561 -118.557775 89 3306ft 97kts
02-Dec-19 20:36 34.199880 -118.525814 91 3000ft 98kts
02-Dec-19 20:37 34.199406 -118.492570 84 2816ft 101kts
02-Dec-19 20:38 34.198788 -118.460947 84 1940ft 90kts
02-Dec-19 20:39 34.198654 -118.430698 91 1721ft 93kts
02-Dec-19 20:40 34.199171 -118.401933 91 1613ft 84kts
02-Dec-19 20:41 34.197932 -118.376546 90 1065ft 66kts
02-Dec-19 20:42 34.197791 -118.360730 90 781ft 7kts
02-Dec-19 20:43 34.197723 -118.355534 96 781ft 6kts
02-Dec-19 20:44 34.196664 -118.354931 163 781ft 0kts

Navigation Log

Ident Type
Flight plan parsing failed, navigation log unavailable